sensor_id;sensor_type;location;lat;lon;timestamp;temperature;humidity
12682;DHT22;6405;59.208;18.216;2023-04-25T00:00:20;3.70;99.90
12682;DHT22;6405;59.208;18.216;2023-04-25T00:02:46;3.70;99.90
12682;DHT22;6405;59.208;18.216;2023-04-25T00:05:12;3.60;99.90
12682;DHT22;6405;59.208;18.216;2023-04-25T00:07:40;3.60;99.90
12682;DHT22;6405;59.208;18.216;2023-04-25T00:10:08;3.60;99.90
12682;DHT22;6405;59.208;18.216;2023-04-25T00:12:34;3.60;99.90
12682;DHT22;6405;59.208;18.216;2023-04-25T00:15:01;3.60;99.90
12682;DHT22;6405;59.208;18.216;2023-04-25T00:17:27;3.60;99.90
12682;DHT22;6405;59.208;18.216;2023-04-25T00:19:53;3.60;99.90
12682;DHT22;6405;59.208;18.216;2023-04-25T00:22:19;3.50;99.90
12682;DHT22;6405;59.208;18.216;2023-04-25T00:24:44;3.50;99.90
12682;DHT22;6405;59.208;18.216;2023-04-25T00:27:10;3.50;99.90
12682;DHT22;6405;59.208;18.216;2023-04-25T00:29:36;3.40;99.90
12682;DHT22;6405;59.208;18.216;2023-04-25T00:32:02;3.40;99.90
12682;DHT22;6405;59.208;18.216;2023-04-25T00:34:29;3.50;99.90
12682;DHT22;6405;59.208;18.216;2023-04-25T00:36:55;3.50;99.90
12682;DHT22;6405;59.208;18.216;2023-04-25T00:39:20;3.50;99.90
12682;DHT22;6405;59.208;18.216;2023-04-25T00:41:46;3.50;99.90
12682;DHT22;6405;59.208;18.216;2023-04-25T00:44:12;3.50;99.90
12682;DHT22;6405;59.208;18.216;2023-04-25T00:46:38;3.50;99.90
12682;DHT22;6405;59.208;18.216;2023-04-25T00:49:04;3.50;99.90
12682;DHT22;6405;59.208;18.216;2023-04-25T00:51:32;3.50;99.90
12682;DHT22;6405;59.208;18.216;2023-04-25T00:53:58;3.50;99.90
12682;DHT22;6405;59.208;18.216;2023-04-25T00:56:25;3.50;99.90
12682;DHT22;6405;59.208;18.216;2023-04-25T00:58:53;3.50;99.90
12682;DHT22;6405;59.208;18.216;2023-04-25T01:01:22;3.50;99.90
12682;DHT22;6405;59.208;18.216;2023-04-25T01:03:49;3.40;99.90
12682;DHT22;6405;59.208;18.216;2023-04-25T01:06:16;3.40;99.90
12682;DHT22;6405;59.208;18.216;2023-04-25T01:08:42;3.40;99.90
12682;DHT22;6405;59.208;18.216;2023-04-25T01:11:08;3.40;99.90
12682;DHT22;6405;59.208;18.216;2023-04-25T01:13:34;3.40;99.90
12682;DHT22;6405;59.208;18.216;2023-04-25T01:16:01;3.40;99.90
12682;DHT22;6405;59.208;18.216;2023-04-25T01:18:26;3.40;99.90
12682;DHT22;6405;59.208;18.216;2023-04-25T01:20:53;3.40;99.90
12682;DHT22;6405;59.208;18.216;2023-04-25T01:23:20;3.40;99.90
12682;DHT22;6405;59.208;18.216;2023-04-25T01:25:46;3.40;99.90
12682;DHT22;6405;59.208;18.216;2023-04-25T01:28:13;3.40;99.90
12682;DHT22;6405;59.208;18.216;2023-04-25T01:30:39;3.40;99.90
12682;DHT22;6405;59.208;18.216;2023-04-25T01:33:07;3.40;99.90
12682;DHT22;6405;59.208;18.216;2023-04-25T01:35:33;3.30;99.90
12682;DHT22;6405;59.208;18.216;2023-04-25T01:37:59;3.40;99.90
12682;DHT22;6405;59.208;18.216;2023-04-25T01:40:25;3.30;99.90
12682;DHT22;6405;59.208;18.216;2023-04-25T01:42:52;3.40;99.90
12682;DHT22;6405;59.208;18.216;2023-04-25T01:45:18;3.40;99.90
12682;DHT22;6405;59.208;18.216;2023-04-25T01:47:43;3.40;99.90
12682;DHT22;6405;59.208;18.216;2023-04-25T01:50:14;3.40;99.90
12682;DHT22;6405;59.208;18.216;2023-04-25T01:52:40;3.40;99.90
12682;DHT22;6405;59.208;18.216;2023-04-25T01:55:06;3.40;99.90
12682;DHT22;6405;59.208;18.216;2023-04-25T01:57:32;3.40;99.90
12682;DHT22;6405;59.208;18.216;2023-04-25T02:00:01;3.40;99.90
12682;DHT22;6405;59.208;18.216;2023-04-25T02:02:27;3.30;99.90
12682;DHT22;6405;59.208;18.216;2023-04-25T02:04:52;3.30;99.90
12682;DHT22;6405;59.208;18.216;2023-04-25T02:07:20;3.30;99.90
12682;DHT22;6405;59.208;18.216;2023-04-25T02:09:45;3.20;99.90
12682;DHT22;6405;59.208;18.216;2023-04-25T02:12:11;3.30;99.90
12682;DHT22;6405;59.208;18.216;2023-04-25T02:14:37;3.30;99.90
12682;DHT22;6405;59.208;18.216;2023-04-25T02:17:02;3.30;99.90
12682;DHT22;6405;59.208;18.216;2023-04-25T02:19:28;3.20;99.90
12682;DHT22;6405;59.208;18.216;2023-04-25T02:21:54;3.20;99.90
12682;DHT22;6405;59.208;18.216;2023-04-25T02:24:19;3.30;99.90
12682;DHT22;6405;59.208;18.216;2023-04-25T02:26:45;3.20;99.90
12682;DHT22;6405;59.208;18.216;2023-04-25T02:29:12;3.20;99.90
12682;DHT22;6405;59.208;18.216;2023-04-25T02:31:38;3.20;99.90
12682;DHT22;6405;59.208;18.216;2023-04-25T02:34:03;3.20;99.90
12682;DHT22;6405;59.208;18.216;2023-04-25T02:36:30;3.30;99.90
12682;DHT22;6405;59.208;18.216;2023-04-25T02:39:00;3.30;99.90
12682;DHT22;6405;59.208;18.216;2023-04-25T02:41:26;3.20;99.90
12682;DHT22;6405;59.208;18.216;2023-04-25T02:43:52;3.30;99.90
12682;DHT22;6405;59.208;18.216;2023-04-25T02:46:17;3.30;99.90
12682;DHT22;6405;59.208;18.216;2023-04-25T02:48:43;3.20;99.90
12682;DHT22;6405;59.208;18.216;2023-04-25T02:51:09;3.30;99.90
12682;DHT22;6405;59.208;18.216;2023-04-25T02:53:35;3.30;99.90
12682;DHT22;6405;59.208;18.216;2023-04-25T02:56:01;3.20;99.90
12682;DHT22;6405;59.208;18.216;2023-04-25T02:58:27;3.20;99.90
12682;DHT22;6405;59.208;18.216;2023-04-25T03:00:53;3.20;99.90
12682;DHT22;6405;59.208;18.216;2023-04-25T03:03:18;3.20;99.90
12682;DHT22;6405;59.208;18.216;2023-04-25T03:05:49;3.20;99.90
12682;DHT22;6405;59.208;18.216;2023-04-25T03:08:16;3.30;99.90
12682;DHT22;6405;59.208;18.216;2023-04-25T03:10:42;3.20;99.90
12682;DHT22;6405;59.208;18.216;2023-04-25T03:13:07;3.30;99.90
12682;DHT22;6405;59.208;18.216;2023-04-25T03:15:33;3.30;99.90
12682;DHT22;6405;59.208;18.216;2023-04-25T03:17:59;3.30;99.90
12682;DHT22;6405;59.208;18.216;2023-04-25T03:20:24;3.30;99.90
12682;DHT22;6405;59.208;18.216;2023-04-25T03:22:50;3.30;99.90
12682;DHT22;6405;59.208;18.216;2023-04-25T03:25:16;3.30;99.90
12682;DHT22;6405;59.208;18.216;2023-04-25T03:27:41;3.30;99.90
12682;DHT22;6405;59.208;18.216;2023-04-25T03:30:07;3.30;99.90
12682;DHT22;6405;59.208;18.216;2023-04-25T03:32:33;3.30;99.90
12682;DHT22;6405;59.208;18.216;2023-04-25T03:34:59;3.30;99.90
12682;DHT22;6405;59.208;18.216;2023-04-25T03:37:25;3.30;99.90
12682;DHT22;6405;59.208;18.216;2023-04-25T03:39:50;3.30;99.90
12682;DHT22;6405;59.208;18.216;2023-04-25T03:42:16;3.30;99.90
12682;DHT22;6405;59.208;18.216;2023-04-25T03:44:42;3.30;99.90
12682;DHT22;6405;59.208;18.216;2023-04-25T03:47:07;3.40;99.90
12682;DHT22;6405;59.208;18.216;2023-04-25T03:49:34;3.30;99.90
12682;DHT22;6405;59.208;18.216;2023-04-25T03:51:59;3.40;99.90
12682;DHT22;6405;59.208;18.216;2023-04-25T03:54:25;3.40;99.90
12682;DHT22;6405;59.208;18.216;2023-04-25T03:56:51;3.40;99.90
12682;DHT22;6405;59.208;18.216;2023-04-25T03:59:17;3.40;99.90
12682;DHT22;6405;59.208;18.216;2023-04-25T04:01:42;3.50;99.90
12682;DHT22;6405;59.208;18.216;2023-04-25T04:04:08;3.50;99.90
12682;DHT22;6405;59.208;18.216;2023-04-25T04:06:33;3.50;99.90
12682;DHT22;6405;59.208;18.216;2023-04-25T04:08:59;3.50;99.90
12682;DHT22;6405;59.208;18.216;2023-04-25T04:11:25;3.50;99.90
12682;DHT22;6405;59.208;18.216;2023-04-25T04:13:51;3.60;99.90
12682;DHT22;6405;59.208;18.216;2023-04-25T04:16:17;3.50;99.90
12682;DHT22;6405;59.208;18.216;2023-04-25T04:18:42;3.60;99.90
12682;DHT22;6405;59.208;18.216;2023-04-25T04:21:08;3.60;99.90
12682;DHT22;6405;59.208;18.216;2023-04-25T04:23:34;3.60;99.90
12682;DHT22;6405;59.208;18.216;2023-04-25T04:25:59;3.60;99.90
12682;DHT22;6405;59.208;18.216;2023-04-25T04:28:26;3.60;99.90
12682;DHT22;6405;59.208;18.216;2023-04-25T04:30:52;3.90;99.90
12682;DHT22;6405;59.208;18.216;2023-04-25T04:33:18;3.70;99.90
12682;DHT22;6405;59.208;18.216;2023-04-25T04:35:47;3.70;99.90
12682;DHT22;6405;59.208;18.216;2023-04-25T04:38:13;3.70;99.90
12682;DHT22;6405;59.208;18.216;2023-04-25T04:40:41;3.80;99.90
12682;DHT22;6405;59.208;18.216;2023-04-25T04:43:09;3.80;99.90
12682;DHT22;6405;59.208;18.216;2023-04-25T04:45:36;3.80;99.90
12682;DHT22;6405;59.208;18.216;2023-04-25T04:48:05;3.90;99.90
12682;DHT22;6405;59.208;18.216;2023-04-25T04:50:31;3.90;99.90
12682;DHT22;6405;59.208;18.216;2023-04-25T04:52:58;3.90;99.90
12682;DHT22;6405;59.208;18.216;2023-04-25T04:55:23;3.90;99.90
12682;DHT22;6405;59.208;18.216;2023-04-25T04:57:49;3.90;99.90
12682;DHT22;6405;59.208;18.216;2023-04-25T05:00:15;4.00;99.90
12682;DHT22;6405;59.208;18.216;2023-04-25T05:02:41;4.00;99.90
12682;DHT22;6405;59.208;18.216;2023-04-25T05:05:07;4.00;99.90
12682;DHT22;6405;59.208;18.216;2023-04-25T05:07:33;4.00;99.90
12682;DHT22;6405;59.208;18.216;2023-04-25T05:09:59;4.00;99.90
12682;DHT22;6405;59.208;18.216;2023-04-25T05:12:25;4.00;99.90
12682;DHT22;6405;59.208;18.216;2023-04-25T05:14:50;4.00;99.90
12682;DHT22;6405;59.208;18.216;2023-04-25T05:17:16;4.00;99.90
12682;DHT22;6405;59.208;18.216;2023-04-25T05:19:42;4.10;99.90
12682;DHT22;6405;59.208;18.216;2023-04-25T05:22:07;4.10;99.90
12682;DHT22;6405;59.208;18.216;2023-04-25T05:24:33;4.20;99.90
12682;DHT22;6405;59.208;18.216;2023-04-25T05:26:59;4.20;99.90
12682;DHT22;6405;59.208;18.216;2023-04-25T05:29:24;4.20;99.90
12682;DHT22;6405;59.208;18.216;2023-04-25T05:31:50;4.20;99.90
12682;DHT22;6405;59.208;18.216;2023-04-25T05:34:15;4.20;99.90
12682;DHT22;6405;59.208;18.216;2023-04-25T05:36:42;4.20;99.90
12682;DHT22;6405;59.208;18.216;2023-04-25T05:39:07;4.20;99.90
12682;DHT22;6405;59.208;18.216;2023-04-25T05:41:34;4.30;99.90
12682;DHT22;6405;59.208;18.216;2023-04-25T05:43:59;4.30;99.90
12682;DHT22;6405;59.208;18.216;2023-04-25T05:46:25;4.30;99.90
12682;DHT22;6405;59.208;18.216;2023-04-25T05:48:51;4.30;99.90
12682;DHT22;6405;59.208;18.216;2023-04-25T05:51:16;4.30;99.90
12682;DHT22;6405;59.208;18.216;2023-04-25T05:53:43;4.40;99.90
12682;DHT22;6405;59.208;18.216;2023-04-25T05:56:09;4.40;99.90
12682;DHT22;6405;59.208;18.216;2023-04-25T05:58:35;4.40;99.90
12682;DHT22;6405;59.208;18.216;2023-04-25T06:01:01;4.40;99.90
12682;DHT22;6405;59.208;18.216;2023-04-25T06:03:28;4.40;99.90
12682;DHT22;6405;59.208;18.216;2023-04-25T06:05:53;4.40;99.90
12682;DHT22;6405;59.208;18.216;2023-04-25T06:08:19;4.40;99.90
12682;DHT22;6405;59.208;18.216;2023-04-25T06:10:45;4.50;99.90
12682;DHT22;6405;59.208;18.216;2023-04-25T06:13:11;4.50;99.90
12682;DHT22;6405;59.208;18.216;2023-04-25T06:15:37;4.50;99.90
12682;DHT22;6405;59.208;18.216;2023-04-25T06:18:02;4.60;99.90
12682;DHT22;6405;59.208;18.216;2023-04-25T06:20:28;4.60;99.90
12682;DHT22;6405;59.208;18.216;2023-04-25T06:22:54;4.70;99.90
12682;DHT22;6405;59.208;18.216;2023-04-25T06:25:20;4.70;99.90
12682;DHT22;6405;59.208;18.216;2023-04-25T06:27:45;4.70;99.90
12682;DHT22;6405;59.208;18.216;2023-04-25T06:30:11;4.70;99.90
12682;DHT22;6405;59.208;18.216;2023-04-25T06:32:40;4.80;99.90
12682;DHT22;6405;59.208;18.216;2023-04-25T06:35:06;4.80;99.90
12682;DHT22;6405;59.208;18.216;2023-04-25T06:37:32;4.90;99.90
12682;DHT22;6405;59.208;18.216;2023-04-25T06:39:57;4.90;99.90
12682;DHT22;6405;59.208;18.216;2023-04-25T06:42:23;5.00;99.90
12682;DHT22;6405;59.208;18.216;2023-04-25T06:44:49;5.00;99.90
12682;DHT22;6405;59.208;18.216;2023-04-25T06:47:14;5.00;99.90
12682;DHT22;6405;59.208;18.216;2023-04-25T06:49:40;5.10;99.90
12682;DHT22;6405;59.208;18.216;2023-04-25T06:52:07;5.10;99.90
12682;DHT22;6405;59.208;18.216;2023-04-25T06:54:32;5.20;99.90
12682;DHT22;6405;59.208;18.216;2023-04-25T06:56:58;5.20;99.90
12682;DHT22;6405;59.208;18.216;2023-04-25T06:59:26;5.30;99.90
12682;DHT22;6405;59.208;18.216;2023-04-25T07:01:52;5.40;99.90
12682;DHT22;6405;59.208;18.216;2023-04-25T07:04:17;5.50;99.90
12682;DHT22;6405;59.208;18.216;2023-04-25T07:06:43;5.50;99.90
12682;DHT22;6405;59.208;18.216;2023-04-25T07:09:09;5.50;99.90
12682;DHT22;6405;59.208;18.216;2023-04-25T07:11:38;5.50;99.90
12682;DHT22;6405;59.208;18.216;2023-04-25T07:14:03;5.60;99.90
12682;DHT22;6405;59.208;18.216;2023-04-25T07:16:29;5.60;99.90
12682;DHT22;6405;59.208;18.216;2023-04-25T07:18:55;5.60;99.90
12682;DHT22;6405;59.208;18.216;2023-04-25T07:21:21;5.70;99.90
12682;DHT22;6405;59.208;18.216;2023-04-25T07:23:46;5.70;99.90
12682;DHT22;6405;59.208;18.216;2023-04-25T07:26:12;5.80;99.90
12682;DHT22;6405;59.208;18.216;2023-04-25T07:28:38;5.90;99.90
12682;DHT22;6405;59.208;18.216;2023-04-25T07:31:04;5.90;99.90
12682;DHT22;6405;59.208;18.216;2023-04-25T07:33:30;6.00;99.90
12682;DHT22;6405;59.208;18.216;2023-04-25T07:35:56;6.00;99.90
12682;DHT22;6405;59.208;18.216;2023-04-25T07:38:22;6.00;99.90
12682;DHT22;6405;59.208;18.216;2023-04-25T07:40:48;6.00;99.90
12682;DHT22;6405;59.208;18.216;2023-04-25T07:43:14;6.00;99.90
12682;DHT22;6405;59.208;18.216;2023-04-25T07:45:45;6.00;99.90
12682;DHT22;6405;59.208;18.216;2023-04-25T07:48:15;6.10;99.90
12682;DHT22;6405;59.208;18.216;2023-04-25T07:50:41;6.20;99.90
12682;DHT22;6405;59.208;18.216;2023-04-25T07:53:07;6.40;99.90
12682;DHT22;6405;59.208;18.216;2023-04-25T07:55:32;6.40;99.90
12682;DHT22;6405;59.208;18.216;2023-04-25T07:57:58;6.40;99.90
12682;DHT22;6405;59.208;18.216;2023-04-25T08:00:24;6.40;99.90
12682;DHT22;6405;59.208;18.216;2023-04-25T08:02:49;6.40;99.90
12682;DHT22;6405;59.208;18.216;2023-04-25T08:05:16;6.50;99.90
12682;DHT22;6405;59.208;18.216;2023-04-25T08:07:42;6.60;99.90
12682;DHT22;6405;59.208;18.216;2023-04-25T08:10:09;6.50;99.90
12682;DHT22;6405;59.208;18.216;2023-04-25T08:12:34;6.40;99.90
12682;DHT22;6405;59.208;18.216;2023-04-25T08:15:00;6.40;99.90
12682;DHT22;6405;59.208;18.216;2023-04-25T08:17:26;6.40;99.90
12682;DHT22;6405;59.208;18.216;2023-04-25T08:19:52;6.50;99.90
12682;DHT22;6405;59.208;18.216;2023-04-25T08:22:18;6.50;99.90
12682;DHT22;6405;59.208;18.216;2023-04-25T08:24:44;6.60;99.90
12682;DHT22;6405;59.208;18.216;2023-04-25T08:27:09;6.70;99.90
12682;DHT22;6405;59.208;18.216;2023-04-25T08:29:36;6.60;99.90
12682;DHT22;6405;59.208;18.216;2023-04-25T08:32:02;6.60;99.90
12682;DHT22;6405;59.208;18.216;2023-04-25T08:34:28;6.60;99.90
12682;DHT22;6405;59.208;18.216;2023-04-25T08:36:54;6.60;99.90
12682;DHT22;6405;59.208;18.216;2023-04-25T08:39:19;6.90;99.90
12682;DHT22;6405;59.208;18.216;2023-04-25T08:41:46;6.80;99.90
12682;DHT22;6405;59.208;18.216;2023-04-25T08:44:12;6.90;99.90
12682;DHT22;6405;59.208;18.216;2023-04-25T08:46:39;6.80;99.90
12682;DHT22;6405;59.208;18.216;2023-04-25T08:49:07;7.00;99.90
12682;DHT22;6405;59.208;18.216;2023-04-25T08:51:38;7.10;99.90
12682;DHT22;6405;59.208;18.216;2023-04-25T08:54:13;7.10;99.90
12682;DHT22;6405;59.208;18.216;2023-04-25T08:56:41;7.20;99.90
12682;DHT22;6405;59.208;18.216;2023-04-25T08:59:10;7.30;99.90
12682;DHT22;6405;59.208;18.216;2023-04-25T09:01:36;7.40;99.90
12682;DHT22;6405;59.208;18.216;2023-04-25T09:04:02;7.50;99.90
12682;DHT22;6405;59.208;18.216;2023-04-25T09:06:29;7.60;99.90
12682;DHT22;6405;59.208;18.216;2023-04-25T09:09:04;7.60;99.90
12682;DHT22;6405;59.208;18.216;2023-04-25T09:11:35;7.70;99.90
12682;DHT22;6405;59.208;18.216;2023-04-25T09:14:19;7.80;99.90
12682;DHT22;6405;59.208;18.216;2023-04-25T09:19:24;7.90;99.90
12682;DHT22;6405;59.208;18.216;2023-04-25T09:21:51;8.00;99.90
12682;DHT22;6405;59.208;18.216;2023-04-25T09:24:41;8.20;99.90
12682;DHT22;6405;59.208;18.216;2023-04-25T09:27:10;8.20;99.90
12682;DHT22;6405;59.208;18.216;2023-04-25T09:29:37;8.20;99.90
12682;DHT22;6405;59.208;18.216;2023-04-25T09:34:43;8.30;99.90
12682;DHT22;6405;59.208;18.216;2023-04-25T09:37:10;8.30;99.90
12682;DHT22;6405;59.208;18.216;2023-04-25T09:39:37;8.30;99.90
12682;DHT22;6405;59.208;18.216;2023-04-25T09:42:04;8.50;99.90
12682;DHT22;6405;59.208;18.216;2023-04-25T09:44:30;8.50;99.90
12682;DHT22;6405;59.208;18.216;2023-04-25T09:46:56;8.70;99.90
12682;DHT22;6405;59.208;18.216;2023-04-25T09:49:22;8.80;99.90
12682;DHT22;6405;59.208;18.216;2023-04-25T09:51:58;8.90;99.90
12682;DHT22;6405;59.208;18.216;2023-04-25T09:54:24;9.00;99.90
12682;DHT22;6405;59.208;18.216;2023-04-25T09:56:52;9.10;99.90
12682;DHT22;6405;59.208;18.216;2023-04-25T09:59:21;9.10;99.90
12682;DHT22;6405;59.208;18.216;2023-04-25T10:01:50;9.20;99.90
12682;DHT22;6405;59.208;18.216;2023-04-25T10:04:23;9.30;99.90
12682;DHT22;6405;59.208;18.216;2023-04-25T10:06:52;9.30;99.90
12682;DHT22;6405;59.208;18.216;2023-04-25T10:09:25;9.30;99.90
12682;DHT22;6405;59.208;18.216;2023-04-25T10:11:51;9.30;99.90
12682;DHT22;6405;59.208;18.216;2023-04-25T10:14:18;9.40;99.90
12682;DHT22;6405;59.208;18.216;2023-04-25T10:16:45;9.50;99.90
12682;DHT22;6405;59.208;18.216;2023-04-25T10:19:11;9.60;99.90
12682;DHT22;6405;59.208;18.216;2023-04-25T10:21:52;9.50;99.90
12682;DHT22;6405;59.208;18.216;2023-04-25T10:24:20;9.60;99.90
12682;DHT22;6405;59.208;18.216;2023-04-25T10:26:47;9.70;99.90
12682;DHT22;6405;59.208;18.216;2023-04-25T10:29:21;9.80;99.90
12682;DHT22;6405;59.208;18.216;2023-04-25T10:31:48;9.80;99.90
12682;DHT22;6405;59.208;18.216;2023-04-25T10:34:13;9.90;99.90
12682;DHT22;6405;59.208;18.216;2023-04-25T10:36:40;10.00;99.90
12682;DHT22;6405;59.208;18.216;2023-04-25T10:39:07;10.00;99.90
12682;DHT22;6405;59.208;18.216;2023-04-25T10:41:57;9.90;99.90
12682;DHT22;6405;59.208;18.216;2023-04-25T10:44:26;10.10;99.90
12682;DHT22;6405;59.208;18.216;2023-04-25T10:46:52;10.20;99.90
12682;DHT22;6405;59.208;18.216;2023-04-25T10:49:37;10.30;99.90
12682;DHT22;6405;59.208;18.216;2023-04-25T10:52:25;10.30;99.90
12682;DHT22;6405;59.208;18.216;2023-04-25T10:54:53;10.40;99.90
12682;DHT22;6405;59.208;18.216;2023-04-25T10:57:32;10.40;99.90
12682;DHT22;6405;59.208;18.216;2023-04-25T11:02:31;10.60;99.90
12682;DHT22;6405;59.208;18.216;2023-04-25T11:04:57;10.60;99.90
12682;DHT22;6405;59.208;18.216;2023-04-25T11:07:39;10.60;99.90
12682;DHT22;6405;59.208;18.216;2023-04-25T11:10:09;10.60;99.90
12682;DHT22;6405;59.208;18.216;2023-04-25T11:12:35;10.60;99.90
12682;DHT22;6405;59.208;18.216;2023-04-25T11:15:03;10.60;99.90
12682;DHT22;6405;59.208;18.216;2023-04-25T11:17:28;10.60;99.90
12682;DHT22;6405;59.208;18.216;2023-04-25T11:19:55;10.70;99.90
12682;DHT22;6405;59.208;18.216;2023-04-25T11:22:22;10.80;99.90
12682;DHT22;6405;59.208;18.216;2023-04-25T11:24:48;10.60;99.90
12682;DHT22;6405;59.208;18.216;2023-04-25T11:27:14;10.70;99.90
12682;DHT22;6405;59.208;18.216;2023-04-25T11:29:40;10.50;99.90
12682;DHT22;6405;59.208;18.216;2023-04-25T11:32:06;10.60;99.90
12682;DHT22;6405;59.208;18.216;2023-04-25T11:34:33;10.60;99.90
12682;DHT22;6405;59.208;18.216;2023-04-25T11:37:00;10.80;99.90
12682;DHT22;6405;59.208;18.216;2023-04-25T11:39:27;10.80;99.90
12682;DHT22;6405;59.208;18.216;2023-04-25T11:41:54;10.80;99.90
12682;DHT22;6405;59.208;18.216;2023-04-25T11:44:20;10.70;99.90
12682;DHT22;6405;59.208;18.216;2023-04-25T11:46:47;10.50;99.90
12682;DHT22;6405;59.208;18.216;2023-04-25T11:49:14;10.30;99.90
12682;DHT22;6405;59.208;18.216;2023-04-25T11:51:44;10.20;99.90
12682;DHT22;6405;59.208;18.216;2023-04-25T11:54:11;10.10;99.90
12682;DHT22;6405;59.208;18.216;2023-04-25T11:56:37;9.90;99.90
12682;DHT22;6405;59.208;18.216;2023-04-25T11:59:05;9.70;99.90
12682;DHT22;6405;59.208;18.216;2023-04-25T12:01:33;9.70;99.90
12682;DHT22;6405;59.208;18.216;2023-04-25T12:04:14;9.70;99.90
12682;DHT22;6405;59.208;18.216;2023-04-25T12:06:40;9.80;99.90
12682;DHT22;6405;59.208;18.216;2023-04-25T12:09:11;10.00;99.90
12682;DHT22;6405;59.208;18.216;2023-04-25T12:11:47;10.10;99.90
12682;DHT22;6405;59.208;18.216;2023-04-25T12:14:21;10.30;99.90
12682;DHT22;6405;59.208;18.216;2023-04-25T12:16:48;10.40;99.90
12682;DHT22;6405;59.208;18.216;2023-04-25T12:19:15;10.40;99.90
12682;DHT22;6405;59.208;18.216;2023-04-25T12:21:42;10.50;99.90
12682;DHT22;6405;59.208;18.216;2023-04-25T12:24:16;10.50;99.90
12682;DHT22;6405;59.208;18.216;2023-04-25T12:26:52;10.40;99.90
12682;DHT22;6405;59.208;18.216;2023-04-25T12:29:23;10.50;99.90
12682;DHT22;6405;59.208;18.216;2023-04-25T12:31:50;10.30;99.90
12682;DHT22;6405;59.208;18.216;2023-04-25T12:34:17;10.30;99.90
12682;DHT22;6405;59.208;18.216;2023-04-25T12:36:43;10.60;99.90
12682;DHT22;6405;59.208;18.216;2023-04-25T12:39:20;10.90;99.90
12682;DHT22;6405;59.208;18.216;2023-04-25T12:41:48;10.90;99.90
12682;DHT22;6405;59.208;18.216;2023-04-25T12:44:14;11.00;99.90
12682;DHT22;6405;59.208;18.216;2023-04-25T12:46:40;11.00;99.90
12682;DHT22;6405;59.208;18.216;2023-04-25T12:49:07;10.80;99.90
12682;DHT22;6405;59.208;18.216;2023-04-25T12:51:34;10.80;99.90
12682;DHT22;6405;59.208;18.216;2023-04-25T12:54:00;10.80;99.90
12682;DHT22;6405;59.208;18.216;2023-04-25T12:56:30;10.90;99.90
12682;DHT22;6405;59.208;18.216;2023-04-25T12:58:56;10.80;99.90
12682;DHT22;6405;59.208;18.216;2023-04-25T13:01:21;10.80;99.90
12682;DHT22;6405;59.208;18.216;2023-04-25T13:03:47;10.90;99.90
12682;DHT22;6405;59.208;18.216;2023-04-25T13:06:14;10.70;99.90
12682;DHT22;6405;59.208;18.216;2023-04-25T13:08:41;10.70;99.90
12682;DHT22;6405;59.208;18.216;2023-04-25T13:11:07;10.70;99.90
12682;DHT22;6405;59.208;18.216;2023-04-25T13:13:33;10.90;99.90
12682;DHT22;6405;59.208;18.216;2023-04-25T13:16:00;10.90;99.90
12682;DHT22;6405;59.208;18.216;2023-04-25T13:18:31;10.80;99.90
12682;DHT22;6405;59.208;18.216;2023-04-25T13:20:57;10.80;99.90
12682;DHT22;6405;59.208;18.216;2023-04-25T13:23:25;10.80;99.90
12682;DHT22;6405;59.208;18.216;2023-04-25T13:25:51;10.70;99.90
12682;DHT22;6405;59.208;18.216;2023-04-25T13:28:16;10.70;99.90
12682;DHT22;6405;59.208;18.216;2023-04-25T13:30:43;10.60;99.90
12682;DHT22;6405;59.208;18.216;2023-04-25T13:33:09;10.50;99.90
12682;DHT22;6405;59.208;18.216;2023-04-25T13:35:36;10.60;99.90
12682;DHT22;6405;59.208;18.216;2023-04-25T13:38:02;10.60;99.90
12682;DHT22;6405;59.208;18.216;2023-04-25T13:40:28;10.60;99.90
12682;DHT22;6405;59.208;18.216;2023-04-25T13:42:55;10.70;99.90
12682;DHT22;6405;59.208;18.216;2023-04-25T13:45:21;11.00;99.90
12682;DHT22;6405;59.208;18.216;2023-04-25T13:47:47;10.70;99.90
12682;DHT22;6405;59.208;18.216;2023-04-25T13:50:12;10.80;99.90
12682;DHT22;6405;59.208;18.216;2023-04-25T13:52:39;10.80;99.90
12682;DHT22;6405;59.208;18.216;2023-04-25T13:55:05;10.70;99.90
12682;DHT22;6405;59.208;18.216;2023-04-25T13:57:33;10.90;99.90
12682;DHT22;6405;59.208;18.216;2023-04-25T13:59:58;11.00;99.90
12682;DHT22;6405;59.208;18.216;2023-04-25T14:02:25;11.10;99.90
12682;DHT22;6405;59.208;18.216;2023-04-25T14:04:51;11.10;99.90
12682;DHT22;6405;59.208;18.216;2023-04-25T14:07:17;11.20;99.90
12682;DHT22;6405;59.208;18.216;2023-04-25T14:09:44;11.30;99.90
12682;DHT22;6405;59.208;18.216;2023-04-25T14:12:10;11.50;99.90
12682;DHT22;6405;59.208;18.216;2023-04-25T14:14:36;11.50;99.90
12682;DHT22;6405;59.208;18.216;2023-04-25T14:17:03;11.40;99.90
12682;DHT22;6405;59.208;18.216;2023-04-25T14:19:29;11.40;99.90
12682;DHT22;6405;59.208;18.216;2023-04-25T14:21:55;11.40;99.90
12682;DHT22;6405;59.208;18.216;2023-04-25T14:24:20;11.40;99.90
12682;DHT22;6405;59.208;18.216;2023-04-25T14:26:46;11.10;99.90
12682;DHT22;6405;59.208;18.216;2023-04-25T14:29:12;11.30;99.90
12682;DHT22;6405;59.208;18.216;2023-04-25T14:31:38;11.00;99.90
12682;DHT22;6405;59.208;18.216;2023-04-25T14:34:04;10.80;99.90
12682;DHT22;6405;59.208;18.216;2023-04-25T14:36:32;10.60;99.90
12682;DHT22;6405;59.208;18.216;2023-04-25T14:38:58;10.30;99.90
12682;DHT22;6405;59.208;18.216;2023-04-25T14:41:25;10.10;99.90
12682;DHT22;6405;59.208;18.216;2023-04-25T14:43:51;9.90;99.90
12682;DHT22;6405;59.208;18.216;2023-04-25T14:46:18;9.60;99.90
12682;DHT22;6405;59.208;18.216;2023-04-25T14:48:45;9.40;99.90
12682;DHT22;6405;59.208;18.216;2023-04-25T14:51:11;9.20;99.90
12682;DHT22;6405;59.208;18.216;2023-04-25T14:53:37;9.20;99.90
12682;DHT22;6405;59.208;18.216;2023-04-25T14:56:02;9.00;99.90
12682;DHT22;6405;59.208;18.216;2023-04-25T14:58:28;8.90;99.90
12682;DHT22;6405;59.208;18.216;2023-04-25T15:00:54;8.80;99.90
12682;DHT22;6405;59.208;18.216;2023-04-25T15:03:20;8.70;99.90
12682;DHT22;6405;59.208;18.216;2023-04-25T15:05:45;8.60;99.90
12682;DHT22;6405;59.208;18.216;2023-04-25T15:08:11;8.50;99.90
12682;DHT22;6405;59.208;18.216;2023-04-25T15:10:37;8.40;99.90
12682;DHT22;6405;59.208;18.216;2023-04-25T15:13:03;8.40;99.90
12682;DHT22;6405;59.208;18.216;2023-04-25T15:15:29;8.40;99.90
12682;DHT22;6405;59.208;18.216;2023-04-25T15:17:55;8.50;99.90
12682;DHT22;6405;59.208;18.216;2023-04-25T15:20:21;8.40;99.90
12682;DHT22;6405;59.208;18.216;2023-04-25T15:22:47;8.30;99.90
12682;DHT22;6405;59.208;18.216;2023-04-25T15:25:15;8.30;99.90
12682;DHT22;6405;59.208;18.216;2023-04-25T15:27:43;8.10;99.90
12682;DHT22;6405;59.208;18.216;2023-04-25T15:30:14;8.10;99.90
12682;DHT22;6405;59.208;18.216;2023-04-25T15:32:46;8.20;99.90
12682;DHT22;6405;59.208;18.216;2023-04-25T15:35:12;8.40;99.90
12682;DHT22;6405;59.208;18.216;2023-04-25T15:37:38;8.50;99.90
12682;DHT22;6405;59.208;18.216;2023-04-25T15:40:06;8.60;99.90
12682;DHT22;6405;59.208;18.216;2023-04-25T15:42:36;8.60;99.90
12682;DHT22;6405;59.208;18.216;2023-04-25T15:45:07;8.70;99.90
12682;DHT22;6405;59.208;18.216;2023-04-25T15:47:34;8.80;99.90